createdAt,value
2018-08-12T00:00:09.940Z,998.05
2018-08-12T00:01:10.032Z,998.03
2018-08-12T00:02:10.150Z,998.04
2018-08-12T00:03:10.245Z,998.03
2018-08-12T00:04:10.339Z,998.05
2018-08-12T00:05:10.431Z,998.05
2018-08-12T00:06:10.513Z,998.05
2018-08-12T00:07:10.635Z,998.03
2018-08-12T00:08:10.692Z,997.99
2018-08-12T00:09:10.783Z,997.97
2018-08-12T00:10:10.887Z,997.98
2018-08-12T00:11:10.975Z,998.00
2018-08-12T00:12:11.071Z,998.04
2018-08-12T00:13:11.171Z,998.03
2018-08-12T00:14:11.258Z,998.03
2018-08-12T00:15:11.363Z,998.02
2018-08-12T00:16:11.450Z,998.01
2018-08-12T00:17:11.546Z,998.00
2018-08-12T00:18:11.646Z,997.96
2018-08-12T00:19:11.740Z,997.93
2018-08-12T00:20:11.837Z,997.93
2018-08-12T00:21:11.936Z,997.89
2018-08-12T00:22:12.033Z,997.90
2018-08-12T00:23:12.127Z,997.91
2018-08-12T00:24:12.224Z,997.89
2018-08-12T00:25:12.314Z,997.87
2018-08-12T00:26:12.401Z,997.90
2018-08-12T00:27:12.500Z,997.89
2018-08-12T00:28:12.603Z,997.90
2018-08-12T00:29:12.697Z,997.92
2018-08-12T00:30:12.789Z,997.93
2018-08-12T00:31:12.889Z,997.92
2018-08-12T00:32:12.999Z,997.93
2018-08-12T00:33:13.094Z,997.92
2018-08-12T00:34:13.188Z,997.89
2018-08-12T00:35:13.282Z,997.88
2018-08-12T00:36:13.376Z,997.83
2018-08-12T00:37:13.473Z,997.85
2018-08-12T00:38:13.566Z,997.80
2018-08-12T00:39:13.663Z,997.79
2018-08-12T00:40:13.759Z,997.83
2018-08-12T00:41:13.853Z,997.81
2018-08-12T00:42:13.948Z,997.82
2018-08-12T00:43:14.044Z,997.80
2018-08-12T00:44:14.137Z,997.81
2018-08-12T00:45:14.232Z,997.80
2018-08-12T00:46:14.334Z,997.80
2018-08-12T00:47:14.427Z,997.81
2018-08-12T00:48:14.520Z,997.83
2018-08-12T00:49:14.617Z,997.79
2018-08-12T00:50:14.712Z,997.85
2018-08-12T00:51:14.807Z,997.80
2018-08-12T00:52:14.904Z,997.78
2018-08-12T00:53:15.000Z,997.77
2018-08-12T00:54:15.097Z,997.78
2018-08-12T00:55:15.191Z,997.80
2018-08-12T00:56:15.285Z,997.75
2018-08-12T00:57:15.390Z,997.75
2018-08-12T00:58:15.478Z,997.77
2018-08-12T00:59:15.584Z,997.77
2018-08-12T01:00:15.682Z,997.75
2018-08-12T01:01:15.776Z,997.73
2018-08-12T01:02:15.872Z,997.67
2018-08-12T01:03:15.967Z,997.70
2018-08-12T01:04:16.062Z,997.67
2018-08-12T01:05:16.161Z,997.67
2018-08-12T01:06:16.255Z,997.67
2018-08-12T01:07:16.357Z,997.69
2018-08-12T01:08:16.449Z,997.65
2018-08-12T01:09:16.544Z,997.67
2018-08-12T01:10:16.640Z,997.64
2018-08-12T01:11:16.736Z,997.66
2018-08-12T01:12:16.829Z,997.71
2018-08-12T01:13:16.926Z,997.70
2018-08-12T01:14:17.021Z,997.70
2018-08-12T01:15:17.115Z,997.71
2018-08-12T01:16:17.209Z,997.75
2018-08-12T01:17:17.305Z,997.76
2018-08-12T01:18:17.399Z,997.77
2018-08-12T01:19:17.493Z,997.74
2018-08-12T01:20:17.589Z,997.74
2018-08-12T01:21:17.685Z,997.76
2018-08-12T01:22:17.779Z,997.75
2018-08-12T01:23:17.871Z,997.75
2018-08-12T01:24:17.968Z,997.72
2018-08-12T01:25:18.064Z,997.71
2018-08-12T01:26:18.162Z,997.69
2018-08-12T01:27:18.259Z,997.68
2018-08-12T01:28:18.352Z,997.70
2018-08-12T01:29:18.444Z,997.66
2018-08-12T01:30:18.535Z,997.69
2018-08-12T01:31:18.635Z,997.66
2018-08-12T01:32:18.730Z,997.67
2018-08-12T01:33:18.825Z,997.64
2018-08-12T01:34:18.931Z,997.65
2018-08-12T01:35:19.027Z,997.59
2018-08-12T01:36:19.122Z,997.58
2018-08-12T01:37:19.217Z,997.59
2018-08-12T01:38:19.313Z,997.60
2018-08-12T01:39:19.415Z,997.64
2018-08-12T01:40:19.506Z,997.63
2018-08-12T01:41:19.600Z,997.62
2018-08-12T01:42:19.694Z,997.59
2018-08-12T01:43:19.788Z,997.61
2018-08-12T01:44:19.889Z,997.58
2018-08-12T01:45:19.982Z,997.59
2018-08-12T01:46:20.082Z,997.62
2018-08-12T01:47:20.174Z,997.61
2018-08-12T01:48:20.269Z,997.59
2018-08-12T01:49:20.360Z,997.59
2018-08-12T01:50:20.456Z,997.61
2018-08-12T01:51:20.551Z,997.62
2018-08-12T01:52:20.644Z,997.57
2018-08-12T01:53:20.738Z,997.56
2018-08-12T01:54:20.829Z,997.55
2018-08-12T01:55:20.923Z,997.55
2018-08-12T01:56:21.019Z,997.56
2018-08-12T01:57:21.118Z,997.60
2018-08-12T01:58:21.209Z,997.59
2018-08-12T01:59:21.303Z,997.56
2018-08-12T02:00:21.399Z,997.53
2018-08-12T02:01:21.496Z,997.52
2018-08-12T02:02:21.592Z,997.53
2018-08-12T02:03:21.684Z,997.52
2018-08-12T02:04:21.780Z,997.51
2018-08-12T02:05:21.873Z,997.50
2018-08-12T02:06:21.970Z,997.50
2018-08-12T02:07:22.061Z,997.50
2018-08-12T02:08:22.154Z,997.49
2018-08-12T02:09:22.252Z,997.49
2018-08-12T02:10:22.348Z,997.47
2018-08-12T02:11:22.444Z,997.44
2018-08-12T02:12:22.537Z,997.45
2018-08-12T02:13:22.630Z,997.44
2018-08-12T02:14:22.724Z,997.41
2018-08-12T02:15:22.819Z,997.44
2018-08-12T02:16:22.913Z,997.43
2018-08-12T02:17:23.009Z,997.41
2018-08-12T02:18:23.102Z,997.41
2018-08-12T02:19:23.196Z,997.43
2018-08-12T02:20:23.294Z,997.41
2018-08-12T02:21:23.389Z,997.43
2018-08-12T02:22:23.482Z,997.43
2018-08-12T02:23:23.577Z,997.45
2018-08-12T02:24:23.674Z,997.42
2018-08-12T02:25:23.768Z,997.41
2018-08-12T02:26:23.868Z,997.40
2018-08-12T02:27:23.957Z,997.38
2018-08-12T02:28:24.049Z,997.36
2018-08-12T02:29:24.146Z,997.36
2018-08-12T02:30:24.238Z,997.38
2018-08-12T02:31:24.332Z,997.35
2018-08-12T02:32:24.432Z,997.31
2018-08-12T02:33:24.538Z,997.32
2018-08-12T02:34:24.635Z,997.33
2018-08-12T02:35:24.728Z,997.30
2018-08-12T02:36:24.819Z,997.31
2018-08-12T02:37:24.918Z,997.32
2018-08-12T02:38:25.024Z,997.31
2018-08-12T02:39:25.119Z,997.33
2018-08-12T02:40:25.206Z,997.33
2018-08-12T02:41:25.300Z,997.31
2018-08-12T02:42:25.393Z,997.32
2018-08-12T02:43:25.487Z,997.35
2018-08-12T02:44:25.591Z,997.32
2018-08-12T02:45:25.675Z,997.30
2018-08-12T02:46:25.775Z,997.33
2018-08-12T02:47:25.864Z,997.31
2018-08-12T02:48:25.960Z,997.28
2018-08-12T02:49:26.054Z,997.24
2018-08-12T02:50:26.157Z,997.25
2018-08-12T02:51:26.239Z,997.22
2018-08-12T02:52:26.335Z,997.24
2018-08-12T02:53:26.430Z,997.21
2018-08-12T02:54:26.527Z,997.19
2018-08-12T02:55:26.619Z,997.18
2018-08-12T02:56:26.713Z,997.21
2018-08-12T02:57:26.808Z,997.19
2018-08-12T02:58:26.903Z,997.17
2018-08-12T02:59:26.997Z,997.15
2018-08-12T03:00:27.090Z,997.15
2018-08-12T03:01:27.184Z,997.14
2018-08-12T03:02:27.280Z,997.07
2018-08-12T03:03:27.380Z,997.08
2018-08-12T03:04:27.476Z,997.09
2018-08-12T03:05:27.571Z,997.10
2018-08-12T03:06:27.665Z,997.07
2018-08-12T03:07:27.760Z,997.06
2018-08-12T03:08:27.850Z,997.04
2018-08-12T03:09:27.947Z,997.07
2018-08-12T03:10:28.051Z,997.06
2018-08-12T03:11:28.137Z,997.04
2018-08-12T03:12:28.232Z,997.05
2018-08-12T03:13:28.327Z,997.06
2018-08-12T03:14:28.417Z,997.01
2018-08-12T03:15:28.515Z,997.05
2018-08-12T03:16:28.608Z,997.03
2018-08-12T03:17:28.702Z,997.04
2018-08-12T03:18:28.795Z,997.02
2018-08-12T03:19:28.891Z,997.00
2018-08-12T03:20:28.985Z,997.00
2018-08-12T03:21:29.083Z,997.00
2018-08-12T03:22:29.216Z,996.99
2018-08-12T03:23:29.277Z,996.98
2018-08-12T03:24:29.364Z,996.99
2018-08-12T03:25:29.458Z,996.97
2018-08-12T03:26:29.550Z,996.97
2018-08-12T03:27:29.645Z,996.91
2018-08-12T03:28:29.741Z,996.96
2018-08-12T03:29:29.833Z,997.00
2018-08-12T03:30:29.931Z,996.98
2018-08-12T03:31:30.026Z,996.97
2018-08-12T03:32:30.116Z,996.95
2018-08-12T03:33:30.213Z,996.94
2018-08-12T03:34:30.307Z,996.91
2018-08-12T03:35:30.399Z,996.86
2018-08-12T03:36:30.494Z,996.89
2018-08-12T03:37:30.590Z,996.81
2018-08-12T03:38:30.683Z,996.84
2018-08-12T03:39:30.778Z,996.81
2018-08-12T03:40:30.875Z,996.81
2018-08-12T03:41:30.969Z,996.80
2018-08-12T03:42:31.078Z,996.79
2018-08-12T03:43:31.159Z,996.74
2018-08-12T03:44:31.252Z,996.76
2018-08-12T03:45:31.348Z,996.74
2018-08-12T03:46:31.444Z,996.78
2018-08-12T03:47:31.541Z,996.75
2018-08-12T03:48:31.635Z,996.77
2018-08-12T03:49:31.728Z,996.77
2018-08-12T03:50:31.821Z,996.77
2018-08-12T03:51:31.918Z,996.77
2018-08-12T03:52:32.015Z,996.77
2018-08-12T03:53:32.109Z,996.76
2018-08-12T03:54:32.207Z,996.78
2018-08-12T03:55:32.302Z,996.72
2018-08-12T03:56:32.396Z,996.72
2018-08-12T03:57:32.492Z,996.73
2018-08-12T03:58:32.594Z,996.71
2018-08-12T03:59:32.688Z,996.71
2018-08-12T04:00:32.781Z,996.68
2018-08-12T04:01:32.875Z,996.72
2018-08-12T04:02:32.972Z,996.73
2018-08-12T04:03:33.067Z,996.72
2018-08-12T04:04:33.161Z,996.77
2018-08-12T04:05:33.253Z,996.78
2018-08-12T04:06:33.346Z,996.73
2018-08-12T04:07:33.431Z,996.68
2018-08-12T04:08:33.519Z,996.70
2018-08-12T04:09:33.613Z,996.67
2018-08-12T04:10:33.688Z,996.67
2018-08-12T04:11:33.775Z,996.68
2018-08-12T04:12:33.871Z,996.68
2018-08-12T04:13:33.974Z,996.67
2018-08-12T04:14:34.078Z,996.67
2018-08-12T04:15:34.166Z,996.65
2018-08-12T04:16:34.256Z,996.65
2018-08-12T04:17:34.376Z,996.65
2018-08-12T04:18:34.477Z,996.64
2018-08-12T04:19:34.563Z,996.63
2018-08-12T04:20:34.656Z,996.60
2018-08-12T04:21:34.755Z,996.62
2018-08-12T04:22:34.846Z,996.62
2018-08-12T04:23:34.939Z,996.61
2018-08-12T04:24:35.033Z,996.62
2018-08-12T04:25:35.152Z,996.58
2018-08-12T04:26:35.219Z,996.59
2018-08-12T04:27:35.312Z,996.62
2018-08-12T04:28:35.408Z,996.60
2018-08-12T04:29:35.502Z,996.61
2018-08-12T04:30:35.584Z,996.57
2018-08-12T04:31:35.678Z,996.53
2018-08-12T04:32:35.768Z,996.55
2018-08-12T04:33:35.858Z,996.50
2018-08-12T04:34:35.967Z,996.50
2018-08-12T04:35:36.064Z,996.52
2018-08-12T04:36:36.164Z,996.52
2018-08-12T04:37:36.238Z,996.49
2018-08-12T04:38:36.330Z,996.54
2018-08-12T04:39:36.427Z,996.49
2018-08-12T04:40:36.516Z,996.52
2018-08-12T04:41:36.604Z,996.46
2018-08-12T04:42:36.694Z,996.50
2018-08-12T04:43:36.772Z,996.49
2018-08-12T04:44:36.857Z,996.47
2018-08-12T04:45:36.949Z,996.43
2018-08-12T04:46:37.037Z,996.48
2018-08-12T04:47:37.131Z,996.44
2018-08-12T04:48:37.223Z,996.45
2018-08-12T04:49:37.322Z,996.48
2018-08-12T04:50:37.411Z,996.43
2018-08-12T04:51:37.502Z,996.45
2018-08-12T04:52:37.592Z,996.38
2018-08-12T04:53:37.693Z,996.37
2018-08-12T04:54:37.778Z,996.39
2018-08-12T04:55:37.868Z,996.40
2018-08-12T04:56:37.961Z,996.45
2018-08-12T04:57:38.064Z,996.43
2018-08-12T04:58:38.160Z,996.45
2018-08-12T04:59:38.248Z,996.46
2018-08-12T05:00:38.340Z,996.43
2018-08-12T05:01:38.419Z,996.45
2018-08-12T05:02:38.512Z,996.39
2018-08-12T05:03:38.601Z,996.42
2018-08-12T05:04:38.696Z,996.42
2018-08-12T05:05:38.793Z,996.39
2018-08-12T05:06:38.889Z,996.38
2018-08-12T05:07:38.983Z,996.41
2018-08-12T05:08:39.081Z,996.37
2018-08-12T05:09:39.166Z,996.38
2018-08-12T05:10:39.258Z,996.38
2018-08-12T05:11:39.371Z,996.34
2018-08-12T05:12:39.458Z,996.35
2018-08-12T05:13:39.551Z,996.34
2018-08-12T05:14:39.642Z,996.31
2018-08-12T05:15:39.752Z,996.32
2018-08-12T05:16:39.846Z,996.30
2018-08-12T05:17:41.210Z,996.28
2018-08-12T05:18:40.093Z,996.29
2018-08-12T05:19:40.185Z,996.26
2018-08-12T05:20:40.283Z,996.25
2018-08-12T05:21:40.363Z,996.24
2018-08-12T05:22:40.469Z,996.20
2018-08-12T05:23:40.563Z,996.20
2018-08-12T05:24:40.663Z,996.20
2018-08-12T05:25:40.756Z,996.16
2018-08-12T05:26:40.840Z,996.21
2018-08-12T05:27:40.946Z,996.20
2018-08-12T05:28:41.052Z,996.16
2018-08-12T05:29:41.154Z,996.17
2018-08-12T05:30:41.250Z,996.17
2018-08-12T05:31:41.345Z,996.18
2018-08-12T05:32:41.445Z,996.15
2018-08-12T05:33:41.535Z,996.17
2018-08-12T05:34:41.648Z,996.14
2018-08-12T05:35:41.741Z,996.12
2018-08-12T05:36:41.834Z,996.09
2018-08-12T05:37:41.942Z,996.11
2018-08-12T05:38:42.039Z,996.06
2018-08-12T05:39:42.134Z,996.08
2018-08-12T05:40:42.230Z,996.06
2018-08-12T05:41:42.317Z,996.08
2018-08-12T05:42:42.414Z,996.05
2018-08-12T05:43:42.503Z,996.06
2018-08-12T05:44:42.604Z,996.05
2018-08-12T05:45:42.693Z,996.08
2018-08-12T05:46:42.789Z,996.07
2018-08-12T05:47:42.884Z,996.02
2018-08-12T05:48:42.980Z,996.02
2018-08-12T05:49:43.075Z,996.04
2018-08-12T05:50:43.171Z,996.02
2018-08-12T05:51:43.263Z,996.00
2018-08-12T05:52:43.354Z,996.00
2018-08-12T05:53:43.450Z,996.00
2018-08-12T05:54:43.544Z,995.98
2018-08-12T05:55:43.646Z,995.98
2018-08-12T05:56:43.735Z,995.98
2018-08-12T05:57:43.834Z,995.98
2018-08-12T05:58:43.940Z,995.98
2018-08-12T05:59:44.031Z,996.02
2018-08-12T06:00:44.124Z,996.02
2018-08-12T06:01:44.217Z,995.99
2018-08-12T06:02:44.333Z,995.99
2018-08-12T06:03:44.413Z,995.98
2018-08-12T06:04:44.512Z,996.00
2018-08-12T06:05:44.609Z,996.01
2018-08-12T06:06:44.704Z,996.01
2018-08-12T06:07:44.799Z,996.06
2018-08-12T06:08:44.936Z,996.06
2018-08-12T06:09:44.992Z,996.20
2018-08-12T06:10:45.086Z,996.21
2018-08-12T06:11:45.189Z,996.24
2018-08-12T06:12:45.283Z,996.26
2018-08-12T06:13:45.376Z,996.28
2018-08-12T06:14:45.475Z,996.30
2018-08-12T06:15:45.568Z,996.31
2018-08-12T06:16:45.661Z,996.30
2018-08-12T06:17:45.762Z,996.32
2018-08-12T06:18:45.854Z,996.30
2018-08-12T06:19:45.946Z,996.30
2018-08-12T06:20:46.043Z,996.33
2018-08-12T06:21:46.131Z,996.30
2018-08-12T06:22:46.235Z,996.29
2018-08-12T06:23:46.332Z,996.30
2018-08-12T06:24:46.426Z,996.28
2018-08-12T06:25:46.564Z,996.26
2018-08-12T06:26:46.624Z,996.29
2018-08-12T06:27:46.747Z,996.14
2018-08-12T06:28:46.851Z,996.23
2018-08-12T06:29:46.953Z,996.24
2018-08-12T06:30:47.061Z,996.21
2018-08-12T06:31:47.164Z,996.19
2018-08-12T06:32:47.262Z,996.14
2018-08-12T06:33:47.355Z,996.10
2018-08-12T06:34:47.462Z,996.14
2018-08-12T06:35:47.563Z,996.16
2018-08-12T06:36:47.665Z,996.11
2018-08-12T06:37:47.764Z,996.15
2018-08-12T06:38:47.864Z,996.16
2018-08-12T06:39:48.041Z,996.16
2018-08-12T06:40:48.064Z,996.15
2018-08-12T06:41:48.169Z,996.12
2018-08-12T06:42:48.268Z,996.18
2018-08-12T06:43:48.368Z,996.15
2018-08-12T06:44:48.471Z,996.14
2018-08-12T06:45:48.569Z,996.19
2018-08-12T06:46:48.657Z,996.10
2018-08-12T06:47:48.771Z,996.05
2018-08-12T06:48:48.881Z,996.14
2018-08-12T06:49:48.982Z,996.18
2018-08-12T06:50:49.086Z,996.11
2018-08-12T06:51:49.252Z,996.17
2018-08-12T06:52:49.290Z,996.16
2018-08-12T06:53:49.388Z,996.13
2018-08-12T06:54:49.491Z,996.11
2018-08-12T06:55:49.592Z,996.14
2018-08-12T06:56:49.692Z,996.09
2018-08-12T06:57:49.792Z,996.09
2018-08-12T06:58:49.890Z,996.07
2018-08-12T06:59:49.996Z,996.03
2018-08-12T07:00:50.094Z,996.09
2018-08-12T07:01:50.193Z,996.03
2018-08-12T07:02:50.302Z,996.04
2018-08-12T07:03:50.402Z,995.96
2018-08-12T07:04:50.501Z,995.96
2018-08-12T07:05:50.600Z,995.93
2018-08-12T07:06:50.699Z,995.91
2018-08-12T07:07:50.798Z,995.86
2018-08-12T07:08:50.898Z,995.86
2018-08-12T07:09:51.015Z,995.83
2018-08-12T07:10:51.112Z,995.82
2018-08-12T07:11:51.216Z,995.84
2018-08-12T07:12:51.317Z,995.81
2018-08-12T07:13:51.415Z,995.78
2018-08-12T07:14:51.515Z,995.77
2018-08-12T07:15:51.614Z,995.74
2018-08-12T07:16:51.725Z,995.69
2018-08-12T07:17:51.829Z,995.73
2018-08-12T07:18:51.925Z,995.72
2018-08-12T07:19:52.024Z,995.71
2018-08-12T07:20:52.121Z,995.69
2018-08-12T07:21:52.218Z,995.67
2018-08-12T07:22:52.316Z,995.68
2018-08-12T07:23:52.418Z,995.68
2018-08-12T07:24:52.516Z,995.66
2018-08-12T07:25:52.613Z,995.71
2018-08-12T07:26:52.711Z,995.71
2018-08-12T07:27:52.807Z,995.71
2018-08-12T07:28:52.907Z,995.71
2018-08-12T07:29:53.007Z,995.66
2018-08-12T07:30:53.105Z,995.66
2018-08-12T07:31:53.199Z,995.59
2018-08-12T07:32:53.313Z,995.58
2018-08-12T07:33:53.394Z,995.63
2018-08-12T07:34:53.495Z,995.58
2018-08-12T07:35:53.593Z,995.57
2018-08-12T07:36:53.693Z,995.57
2018-08-12T07:37:53.794Z,995.57
2018-08-12T07:38:53.890Z,995.53
2018-08-12T07:39:53.989Z,995.53
2018-08-12T07:40:54.089Z,995.54
2018-08-12T07:41:54.194Z,995.47
2018-08-12T07:42:54.285Z,995.49
2018-08-12T07:43:54.390Z,995.45
2018-08-12T07:44:54.478Z,995.40
2018-08-12T07:45:54.578Z,995.39
2018-08-12T07:46:54.674Z,995.43
2018-08-12T07:47:54.772Z,995.39
2018-08-12T07:48:54.887Z,995.39
2018-08-12T07:49:54.968Z,995.37
2018-08-12T07:50:55.065Z,995.37
2018-08-12T07:51:55.166Z,995.35
2018-08-12T07:52:55.259Z,995.33
2018-08-12T07:53:55.358Z,995.35
2018-08-12T07:54:55.456Z,995.31
2018-08-12T07:55:55.551Z,995.30
2018-08-12T07:56:55.651Z,995.32
2018-08-12T07:57:55.736Z,995.27
2018-08-12T07:58:55.832Z,995.26
2018-08-12T07:59:55.932Z,995.24
2018-08-12T08:00:56.036Z,995.25
2018-08-12T08:01:56.128Z,995.26
2018-08-12T08:02:56.226Z,995.24
2018-08-12T08:03:56.327Z,995.22
2018-08-12T08:04:56.423Z,995.21
2018-08-12T08:05:56.521Z,995.21
2018-08-12T08:06:56.617Z,995.22
2018-08-12T08:07:56.717Z,995.21
2018-08-12T08:08:56.815Z,995.21
2018-08-12T08:09:56.914Z,995.20
2018-08-12T08:10:57.028Z,995.18
2018-08-12T08:11:57.126Z,995.19
2018-08-12T08:12:57.223Z,995.23
2018-08-12T08:13:57.326Z,995.19
2018-08-12T08:14:57.421Z,995.23
2018-08-12T08:15:57.519Z,995.21
2018-08-12T08:16:57.617Z,995.17
2018-08-12T08:17:57.737Z,995.17
2018-08-12T08:18:57.833Z,995.17
2018-08-12T08:19:57.936Z,995.15
2018-08-12T08:20:58.036Z,995.12
2018-08-12T08:21:58.130Z,995.11
2018-08-12T08:22:58.232Z,995.13
2018-08-12T08:23:58.327Z,995.13
2018-08-12T08:24:58.449Z,995.12
2018-08-12T08:25:58.598Z,995.14
2018-08-12T08:26:58.641Z,995.12
2018-08-12T08:27:58.739Z,995.13
2018-08-12T08:28:58.838Z,995.17
2018-08-12T08:29:58.941Z,995.13
2018-08-12T08:30:59.034Z,995.15
2018-08-12T08:31:59.295Z,995.12
2018-08-12T08:32:59.234Z,995.12
2018-08-12T08:33:59.334Z,995.10
2018-08-12T08:34:59.429Z,995.07
2018-08-12T08:35:59.533Z,995.07
2018-08-12T08:36:59.636Z,995.04
2018-08-12T08:37:59.753Z,995.03
2018-08-12T08:38:59.832Z,995.04
2018-08-12T08:39:59.934Z,995.04
2018-08-12T08:41:00.032Z,995.02
2018-08-12T08:42:00.129Z,994.99
2018-08-12T08:43:00.228Z,994.99
2018-08-12T08:44:00.381Z,994.95
2018-08-12T08:45:00.426Z,994.99
2018-08-12T08:46:00.517Z,994.96
2018-08-12T08:47:00.615Z,995.00
2018-08-12T08:48:00.712Z,994.98
2018-08-12T08:49:00.813Z,995.01
2018-08-12T08:50:00.956Z,994.93
2018-08-12T08:51:01.008Z,994.95
2018-08-12T08:52:01.108Z,994.95
2018-08-12T08:53:01.209Z,994.92
2018-08-12T08:54:01.307Z,994.95
2018-08-12T08:55:01.413Z,994.97
2018-08-12T08:56:01.507Z,994.94
2018-08-12T08:57:01.603Z,994.94
2018-08-12T08:58:01.702Z,994.96
2018-08-12T08:59:01.818Z,994.94
2018-08-12T09:00:01.915Z,994.94
2018-08-12T09:01:02.012Z,994.95
2018-08-12T09:02:02.117Z,995.01
2018-08-12T09:03:02.209Z,994.97
2018-08-12T09:04:02.310Z,994.92
2018-08-12T09:05:02.409Z,994.95
2018-08-12T09:06:02.530Z,994.90
2018-08-12T09:07:02.630Z,994.93
2018-08-12T09:08:02.819Z,994.91
2018-08-12T09:09:03.066Z,994.91
2018-08-12T09:10:02.932Z,994.92
2018-08-12T09:11:03.030Z,994.96
2018-08-12T09:12:03.131Z,994.93
2018-08-12T09:13:03.238Z,994.91
2018-08-12T09:14:03.336Z,995.00
2018-08-12T09:15:03.438Z,994.91
2018-08-12T09:16:03.551Z,994.89
2018-08-12T09:17:03.631Z,994.90
2018-08-12T09:18:03.740Z,994.88
2018-08-12T09:19:03.835Z,994.86
2018-08-12T09:20:03.936Z,994.86
2018-08-12T09:21:04.040Z,994.83
2018-08-12T09:22:04.170Z,994.81
2018-08-12T09:23:04.240Z,994.79
2018-08-12T09:24:04.423Z,994.84
2018-08-12T09:25:04.425Z,994.82
2018-08-12T09:26:04.531Z,994.81
2018-08-12T09:27:04.619Z,994.78
2018-08-12T09:28:04.714Z,994.76
2018-08-12T09:29:04.808Z,994.73
2018-08-12T09:30:04.906Z,994.71
2018-08-12T09:31:05.008Z,994.70
2018-08-12T09:32:05.112Z,994.67
2018-08-12T09:33:05.211Z,994.64
2018-08-12T09:34:05.303Z,994.56
2018-08-12T09:35:05.400Z,994.59
2018-08-12T09:36:05.498Z,994.56
2018-08-12T09:37:05.601Z,994.47
2018-08-12T09:38:05.708Z,994.60
2018-08-12T09:39:05.799Z,994.49
2018-08-12T09:40:05.904Z,994.47
2018-08-12T09:41:06.031Z,994.53
2018-08-12T09:42:06.137Z,994.50
2018-08-12T09:43:06.264Z,994.49
2018-08-12T09:44:06.351Z,994.48
2018-08-12T09:45:06.445Z,994.41
2018-08-12T09:46:06.541Z,994.42
2018-08-12T09:47:06.717Z,994.47
2018-08-12T09:48:06.729Z,994.43
2018-08-12T09:49:06.827Z,994.39
2018-08-12T09:50:06.921Z,994.39
2018-08-12T09:51:07.025Z,994.34
2018-08-12T09:52:07.126Z,994.36
2018-08-12T09:53:07.228Z,994.37
2018-08-12T09:54:07.328Z,994.35
2018-08-12T09:55:07.428Z,994.39
2018-08-12T09:56:07.528Z,994.31
2018-08-12T09:57:07.626Z,994.34
2018-08-12T09:58:07.732Z,994.32
2018-08-12T09:59:07.818Z,994.31
2018-08-12T10:00:07.916Z,994.26
2018-08-12T10:01:08.021Z,994.30
2018-08-12T10:02:08.114Z,994.34
2018-08-12T10:03:08.212Z,994.27
2018-08-12T10:04:08.316Z,994.26
2018-08-12T10:05:08.441Z,994.22
2018-08-12T10:06:08.538Z,994.23
2018-08-12T10:07:08.634Z,994.20
2018-08-12T10:08:08.736Z,994.20
2018-08-12T10:09:08.875Z,994.25
2018-08-12T10:10:08.976Z,994.20
2018-08-12T10:11:09.074Z,994.13
2018-08-12T10:12:09.176Z,994.13
2018-08-12T10:13:09.286Z,994.07
2018-08-12T10:14:09.394Z,994.09
2018-08-12T10:15:09.496Z,994.06
2018-08-12T10:16:09.599Z,994.06
2018-08-12T10:17:09.699Z,994.02
2018-08-12T10:18:09.815Z,994.02
2018-08-12T10:19:09.920Z,994.04
2018-08-12T10:20:10.021Z,994.06
2018-08-12T10:21:10.125Z,994.07
2018-08-12T10:22:10.232Z,994.05
2018-08-12T10:23:10.320Z,994.03
2018-08-12T10:24:10.428Z,994.03
2018-08-12T10:25:10.527Z,993.97
2018-08-12T10:26:10.628Z,993.98
2018-08-12T10:27:10.729Z,994.02
2018-08-12T10:28:10.825Z,994.03
2018-08-12T10:29:10.956Z,993.97
2018-08-12T10:30:11.013Z,993.95
2018-08-12T10:31:11.120Z,993.92
2018-08-12T10:32:11.210Z,993.89
2018-08-12T10:33:11.311Z,993.87
2018-08-12T10:34:11.414Z,993.85
2018-08-12T10:35:11.517Z,993.83
2018-08-12T10:36:11.621Z,993.81
2018-08-12T10:37:11.728Z,993.76
2018-08-12T10:38:11.828Z,993.78
2018-08-12T10:39:11.931Z,993.84
2018-08-12T10:40:12.031Z,993.84
2018-08-12T10:41:12.148Z,993.84
2018-08-12T10:42:12.247Z,993.82
2018-08-12T10:43:12.346Z,993.74
2018-08-12T10:44:12.477Z,993.78
2018-08-12T10:45:12.551Z,993.75
2018-08-12T10:46:12.640Z,993.70
2018-08-12T10:47:12.748Z,993.69
2018-08-12T10:48:12.844Z,993.71
2018-08-12T10:49:12.937Z,993.70
2018-08-12T10:50:13.041Z,993.70
2018-08-12T10:51:13.141Z,993.64
2018-08-12T10:52:13.240Z,993.63
2018-08-12T10:53:13.345Z,993.63
2018-08-12T10:54:13.450Z,993.59
2018-08-12T10:55:13.567Z,993.67
2018-08-12T10:56:13.666Z,993.56
2018-08-12T10:57:13.772Z,993.52
2018-08-12T10:58:13.888Z,993.53
2018-08-12T10:59:14.012Z,993.47
2018-08-12T11:00:14.098Z,993.45
2018-08-12T11:01:14.198Z,993.43
2018-08-12T11:02:14.300Z,993.38
2018-08-12T11:03:14.395Z,993.44
2018-08-12T11:04:14.511Z,993.36
2018-08-12T11:05:14.634Z,993.38
2018-08-12T11:06:14.736Z,993.37
2018-08-12T11:07:14.839Z,993.36
2018-08-12T11:08:14.936Z,993.37
2018-08-12T11:09:15.040Z,993.35
2018-08-12T11:10:15.141Z,993.33
2018-08-12T11:11:15.242Z,993.39
2018-08-12T11:12:15.351Z,993.42
2018-08-12T11:13:15.448Z,993.33
2018-08-12T11:14:15.549Z,993.31
2018-08-12T11:15:15.639Z,993.37
2018-08-12T11:16:15.749Z,993.39
2018-08-12T11:17:15.849Z,993.41
2018-08-12T11:18:15.948Z,993.39
2018-08-12T11:19:16.052Z,993.41
2018-08-12T11:20:16.226Z,993.29
2018-08-12T11:21:16.257Z,993.29
2018-08-12T11:22:16.357Z,993.25
2018-08-12T11:23:16.460Z,993.19
2018-08-12T11:24:16.572Z,993.21
2018-08-12T11:25:16.660Z,993.22
2018-08-12T11:26:16.773Z,993.14
2018-08-12T11:27:16.873Z,993.09
2018-08-12T11:28:16.977Z,993.13
2018-08-12T11:29:17.082Z,993.11
2018-08-12T11:30:17.180Z,993.06
2018-08-12T11:31:17.286Z,993.01
2018-08-12T11:32:17.387Z,993.05
2018-08-12T11:33:17.490Z,993.06
2018-08-12T11:34:17.593Z,993.01
2018-08-12T11:35:17.696Z,993.02
2018-08-12T11:36:17.800Z,992.96
2018-08-12T11:37:17.906Z,992.95
2018-08-12T11:38:18.008Z,992.93
2018-08-12T11:39:18.112Z,992.89
2018-08-12T11:40:18.210Z,992.85
2018-08-12T11:41:18.410Z,992.82
2018-08-12T11:42:18.416Z,992.85
2018-08-12T11:43:18.520Z,992.90
2018-08-12T11:44:18.625Z,992.85
2018-08-12T11:45:18.724Z,992.82
2018-08-12T11:46:18.834Z,992.76
2018-08-12T11:47:18.941Z,992.81
2018-08-12T11:48:19.029Z,992.71
2018-08-12T11:49:19.129Z,992.69
2018-08-12T11:50:19.231Z,992.70
2018-08-12T11:51:19.336Z,992.70
2018-08-12T11:52:19.443Z,992.66
2018-08-12T11:53:19.543Z,992.62
2018-08-12T11:54:19.648Z,992.67
2018-08-12T11:55:19.746Z,992.72
2018-08-12T11:56:19.845Z,992.71
2018-08-12T11:57:19.948Z,992.70
2018-08-12T11:58:20.055Z,992.64
2018-08-12T11:59:20.157Z,992.66
2018-08-12T12:00:20.258Z,992.60
2018-08-12T12:01:20.364Z,992.57
2018-08-12T12:02:20.463Z,992.57
2018-08-12T12:03:20.563Z,992.58
2018-08-12T12:04:20.687Z,992.57
2018-08-12T12:05:20.774Z,992.66
2018-08-12T12:06:20.875Z,992.62
2018-08-12T12:07:20.977Z,992.55
2018-08-12T12:08:21.081Z,992.55
2018-08-12T12:09:21.177Z,992.61
2018-08-12T12:10:21.278Z,992.59
2018-08-12T12:11:21.382Z,992.51
2018-08-12T12:12:21.486Z,992.56
2018-08-12T12:13:21.589Z,992.56
2018-08-12T12:14:21.692Z,992.50
2018-08-12T12:15:21.799Z,992.49
2018-08-12T12:16:21.902Z,992.46
2018-08-12T12:17:22.003Z,992.47
2018-08-12T12:18:22.107Z,992.47
2018-08-12T12:19:22.211Z,992.43
2018-08-12T12:20:22.356Z,992.33
2018-08-12T12:21:22.417Z,992.43
2018-08-12T12:22:22.521Z,992.50
2018-08-12T12:23:22.629Z,992.47
2018-08-12T12:24:22.732Z,992.44
2018-08-12T12:25:22.834Z,992.41
2018-08-12T12:26:22.942Z,992.38
2018-08-12T12:27:23.047Z,992.33
2018-08-12T12:28:23.148Z,992.33
2018-08-12T12:29:23.253Z,992.29